createdAt,value
2022-10-21T00:00:17.426Z,6.32
2022-10-21T00:02:44.254Z,6.05
2022-10-21T00:05:11.107Z,6.90
2022-10-21T00:07:38.127Z,7.45
2022-10-21T00:10:06.143Z,7.03
2022-10-21T00:12:33.879Z,7.18
2022-10-21T00:15:01.978Z,5.97
2022-10-21T00:17:28.740Z,7.05
2022-10-21T00:19:55.669Z,7.43
2022-10-21T00:22:22.712Z,7.28
2022-10-21T00:24:49.665Z,6.90
2022-10-21T00:27:16.317Z,6.53
2022-10-21T00:29:42.890Z,7.30
2022-10-21T00:32:09.562Z,6.65
2022-10-21T00:34:36.980Z,6.70
2022-10-21T00:37:03.940Z,7.43
2022-10-21T00:39:30.566Z,7.35
2022-10-21T00:41:57.158Z,6.95
2022-10-21T00:44:26.320Z,7.30
2022-10-21T00:47:03.021Z,7.47
2022-10-21T00:49:40.622Z,6.95
2022-10-21T00:52:13.501Z,7.13
2022-10-21T00:54:42.121Z,7.55
2022-10-21T00:57:09.286Z,7.35
2022-10-21T00:59:42.152Z,7.32
2022-10-21T01:02:08.865Z,8.32
2022-10-21T01:04:35.650Z,7.65
2022-10-21T01:07:03.179Z,7.80
2022-10-21T01:09:30.357Z,7.78
2022-10-21T01:11:57.549Z,7.95
2022-10-21T01:14:48.238Z,8.07
2022-10-21T01:17:44.638Z,8.20
2022-10-21T01:20:13.189Z,8.32
2022-10-21T01:23:04.790Z,7.60
2022-10-21T01:26:05.304Z,7.85
2022-10-21T01:29:02.254Z,8.00
2022-10-21T01:31:33.869Z,7.68
2022-10-21T01:34:14.476Z,8.10
2022-10-21T01:36:51.243Z,7.97
2022-10-21T01:39:40.253Z,8.45
2022-10-21T01:42:21.996Z,8.18
2022-10-21T01:44:52.406Z,9.02
2022-10-21T01:47:32.815Z,7.80
2022-10-21T01:50:10.529Z,8.63
2022-10-21T01:52:40.604Z,8.45
2022-10-21T01:55:14.413Z,9.15
2022-10-21T01:57:45.825Z,8.20
2022-10-21T02:00:13.501Z,8.70
2022-10-21T02:02:44.434Z,9.18
2022-10-21T02:05:22.401Z,8.15
2022-10-21T02:07:49.627Z,7.80
2022-10-21T02:10:18.133Z,8.90
2022-10-21T02:12:47.587Z,8.77
2022-10-21T02:15:16.106Z,9.43
2022-10-21T02:17:47.937Z,8.80
2022-10-21T02:20:16.406Z,9.45
2022-10-21T02:22:46.032Z,8.57
2022-10-21T02:25:21.705Z,8.75
2022-10-21T02:27:48.965Z,8.90
2022-10-21T02:30:15.799Z,9.45
2022-10-21T02:32:47.746Z,9.80
2022-10-21T02:35:20.529Z,9.77
2022-10-21T02:38:10.103Z,9.55
2022-10-21T02:40:42.208Z,10.00
2022-10-21T02:43:27.376Z,9.57
2022-10-21T02:45:59.417Z,9.43
2022-10-21T02:48:26.064Z,9.77
2022-10-21T02:50:53.009Z,9.57
2022-10-21T02:53:19.605Z,9.32
2022-10-21T02:55:46.191Z,9.57
2022-10-21T02:58:12.789Z,10.05
2022-10-21T03:00:39.412Z,10.52
2022-10-21T03:03:06.133Z,10.40
2022-10-21T03:05:32.735Z,10.32
2022-10-21T03:07:59.398Z,9.75
2022-10-21T03:10:26.014Z,10.45
2022-10-21T03:12:52.596Z,10.05
2022-10-21T03:15:19.438Z,11.07
2022-10-21T03:17:46.941Z,10.98
2022-10-21T03:20:13.695Z,10.65
2022-10-21T03:22:40.279Z,9.70
2022-10-21T03:25:07.583Z,10.32
2022-10-21T03:27:34.323Z,9.88
2022-10-21T03:30:00.980Z,10.23
2022-10-21T03:32:27.592Z,10.57
2022-10-21T03:34:54.180Z,9.15
2022-10-21T03:37:20.847Z,10.13
2022-10-21T03:39:47.452Z,11.02
2022-10-21T03:42:14.141Z,9.70
2022-10-21T03:44:41.341Z,10.25
2022-10-21T03:47:08.389Z,9.88
2022-10-21T03:52:06.700Z,10.27
2022-10-21T03:54:33.441Z,10.50
2022-10-21T03:57:00.010Z,11.02
2022-10-21T03:59:26.704Z,10.55
2022-10-21T04:01:53.394Z,11.20
2022-10-21T04:04:20.093Z,11.13
2022-10-21T04:06:46.825Z,11.50
2022-10-21T04:09:13.566Z,11.38
2022-10-21T04:11:40.260Z,11.02
2022-10-21T04:14:10.252Z,11.18
2022-10-21T04:16:40.006Z,11.25
2022-10-21T04:19:06.726Z,10.60
2022-10-21T04:21:33.398Z,11.50
2022-10-21T04:24:00.026Z,10.98
2022-10-21T04:26:26.675Z,10.65
2022-10-21T04:28:53.316Z,10.95
2022-10-21T04:31:19.875Z,11.43
2022-10-21T04:33:46.586Z,11.25
2022-10-21T04:36:13.188Z,11.13
2022-10-21T04:38:39.850Z,10.93
2022-10-21T04:41:06.522Z,11.25
2022-10-21T04:43:33.128Z,10.77
2022-10-21T04:45:59.832Z,10.13
2022-10-21T04:48:26.462Z,10.85
2022-10-21T04:50:54.160Z,9.70
2022-10-21T04:53:22.215Z,10.55
2022-10-21T04:55:53.278Z,10.07
2022-10-21T04:58:22.063Z,10.90
2022-10-21T05:00:50.591Z,11.32
2022-10-21T05:03:17.788Z,11.45
2022-10-21T05:05:44.594Z,11.27
2022-10-21T05:08:11.768Z,11.35
2022-10-21T05:10:38.632Z,11.15
2022-10-21T05:13:06.123Z,11.60
2022-10-21T05:15:33.350Z,12.70
2022-10-21T05:18:00.078Z,12.00
2022-10-21T05:20:26.712Z,13.02
2022-10-21T05:22:53.578Z,12.70
2022-10-21T05:25:20.784Z,12.60
2022-10-21T05:27:47.511Z,13.30
2022-10-21T05:30:14.824Z,14.10
2022-10-21T05:32:42.302Z,13.02
2022-10-21T05:35:09.093Z,12.98
2022-10-21T05:37:35.762Z,12.65
2022-10-21T05:40:04.228Z,12.50
2022-10-21T05:42:30.818Z,12.63
2022-10-21T05:44:57.490Z,11.73
2022-10-21T05:47:24.055Z,11.80
2022-10-21T05:49:50.945Z,11.13
2022-10-21T05:52:17.573Z,11.75
2022-10-21T05:54:44.282Z,11.65
2022-10-21T05:57:10.873Z,12.75
2022-10-21T05:59:37.483Z,12.17
2022-10-21T06:02:04.108Z,12.75
2022-10-21T06:04:32.899Z,12.27
2022-10-21T06:07:02.873Z,12.30
2022-10-21T06:09:29.482Z,13.07
2022-10-21T06:11:57.800Z,12.05
2022-10-21T06:14:25.900Z,11.93
2022-10-21T06:16:52.542Z,13.18
2022-10-21T06:19:19.159Z,12.45
2022-10-21T06:21:47.196Z,13.05
2022-10-21T06:24:14.023Z,11.98
2022-10-21T06:26:40.642Z,12.32
2022-10-21T06:29:07.328Z,11.20
2022-10-21T06:31:33.973Z,11.15
2022-10-21T06:34:00.561Z,12.93
2022-10-21T06:36:27.168Z,12.48
2022-10-21T06:38:53.943Z,11.73
2022-10-21T06:41:20.557Z,12.13
2022-10-21T06:43:47.205Z,12.02
2022-10-21T06:46:15.635Z,12.80
2022-10-21T06:48:42.422Z,12.75
2022-10-21T06:51:13.041Z,12.73
2022-10-21T06:53:39.936Z,11.38
2022-10-21T06:56:09.913Z,11.88
2022-10-21T06:58:38.167Z,12.30
2022-10-21T07:01:27.270Z,11.50
2022-10-21T07:03:59.723Z,11.88
2022-10-21T07:06:26.440Z,11.98
2022-10-21T07:09:00.440Z,12.82
2022-10-21T07:11:28.242Z,12.57
2022-10-21T07:13:55.216Z,12.20
2022-10-21T07:16:27.517Z,13.18
2022-10-21T07:18:55.259Z,12.07
2022-10-21T07:21:25.003Z,12.27
2022-10-21T07:23:53.042Z,11.82
2022-10-21T07:26:22.030Z,11.52
2022-10-21T07:28:49.208Z,11.25
2022-10-21T07:31:17.970Z,11.32
2022-10-21T07:33:45.085Z,11.27
2022-10-21T07:36:14.974Z,10.80
2022-10-21T07:38:46.401Z,11.45
2022-10-21T07:41:38.004Z,11.77
2022-10-21T07:44:05.845Z,10.75
2022-10-21T07:46:33.163Z,10.82
2022-10-21T07:48:59.727Z,10.38
2022-10-21T07:51:30.176Z,10.85
2022-10-21T07:53:59.940Z,10.23
2022-10-21T07:56:40.242Z,10.23
2022-10-21T07:59:12.662Z,11.30
2022-10-21T08:01:44.008Z,11.77
2022-10-21T08:04:12.345Z,11.07
2022-10-21T08:06:38.946Z,11.20
2022-10-21T08:09:05.698Z,13.13
2022-10-21T08:11:33.618Z,11.88
2022-10-21T08:14:00.606Z,11.70
2022-10-21T08:16:27.295Z,10.55
2022-10-21T08:18:54.529Z,10.05
2022-10-21T08:21:21.432Z,9.27
2022-10-21T08:23:48.211Z,9.68
2022-10-21T08:26:16.546Z,9.30
2022-10-21T08:28:43.657Z,9.60
2022-10-21T08:31:16.699Z,9.57
2022-10-21T08:33:43.486Z,8.75
2022-10-21T08:36:13.537Z,8.70
2022-10-21T08:38:40.252Z,9.13
2022-10-21T08:41:28.476Z,9.05
2022-10-21T08:44:07.138Z,9.07
2022-10-21T08:46:39.622Z,8.30
2022-10-21T08:49:23.118Z,8.43
2022-10-21T08:52:15.164Z,8.57
2022-10-21T08:54:55.181Z,8.25
2022-10-21T08:57:22.079Z,7.93
2022-10-21T08:59:49.045Z,8.10
2022-10-21T09:02:33.243Z,7.50
2022-10-21T09:05:29.378Z,8.25
2022-10-21T09:08:01.881Z,7.25
2022-10-21T09:10:58.966Z,7.22
2022-10-21T09:13:44.097Z,7.20
2022-10-21T09:16:19.339Z,7.90
2022-10-21T09:19:13.525Z,7.30
2022-10-21T09:22:33.708Z,7.72
2022-10-21T09:25:20.829Z,6.80
2022-10-21T09:27:56.434Z,7.75
2022-10-21T09:30:24.768Z,7.57
2022-10-21T09:32:58.770Z,6.80
2022-10-21T09:35:43.677Z,6.32
2022-10-21T09:38:42.211Z,7.63
2022-10-21T09:41:18.988Z,7.80
2022-10-21T09:43:45.716Z,6.95
2022-10-21T09:46:14.182Z,6.95
2022-10-21T09:51:45.047Z,6.32
2022-10-21T09:54:21.332Z,6.88
2022-10-21T09:56:54.695Z,6.80
2022-10-21T09:59:23.407Z,6.60
2022-10-21T10:01:50.384Z,6.35
2022-10-21T10:04:33.625Z,5.97
2022-10-21T10:07:28.067Z,6.72
2022-10-21T10:09:54.749Z,6.32
2022-10-21T10:12:23.573Z,6.22
2022-10-21T10:14:50.871Z,6.43
2022-10-21T10:17:31.495Z,5.95
2022-10-21T10:20:04.481Z,5.80
2022-10-21T10:22:32.701Z,6.60
2022-10-21T10:25:14.463Z,6.38
2022-10-21T10:27:50.813Z,6.55
2022-10-21T10:30:18.454Z,6.20
2022-10-21T10:32:45.790Z,6.10
2022-10-21T10:35:26.183Z,6.78
2022-10-21T10:37:53.767Z,6.47
2022-10-21T10:40:27.284Z,6.22
2022-10-21T10:43:03.336Z,6.78
2022-10-21T10:45:29.964Z,6.15
2022-10-21T10:48:03.991Z,6.80
2022-10-21T10:50:48.810Z,6.35
2022-10-21T10:53:38.097Z,5.90
2022-10-21T10:56:11.253Z,5.60
2022-10-21T10:58:46.502Z,6.07
2022-10-21T11:01:21.860Z,6.40
2022-10-21T11:03:57.984Z,5.93
2022-10-21T11:06:42.396Z,5.22
2022-10-21T11:11:43.307Z,4.93
2022-10-21T11:17:03.968Z,4.90
2022-10-21T11:19:39.835Z,5.30
2022-10-21T11:22:14.395Z,5.03
2022-10-21T11:24:56.845Z,5.13
2022-10-21T11:27:32.600Z,5.00
2022-10-21T11:30:11.453Z,4.68
2022-10-21T11:33:14.336Z,5.20
2022-10-21T11:35:59.537Z,4.72
2022-10-21T11:38:58.865Z,4.97
2022-10-21T11:41:44.066Z,5.25
2022-10-21T11:44:43.401Z,4.72
2022-10-21T11:47:18.206Z,4.93
2022-10-21T11:49:53.752Z,4.57
2022-10-21T11:52:26.696Z,4.78
2022-10-21T11:55:09.968Z,5.40
2022-10-21T11:57:46.085Z,4.82
2022-10-21T12:00:22.781Z,6.70
2022-10-21T12:03:11.681Z,4.63
2022-10-21T12:06:01.454Z,4.32
2022-10-21T12:08:38.297Z,5.20
2022-10-21T12:11:30.410Z,5.22
2022-10-21T12:14:00.332Z,5.40
2022-10-21T12:16:30.430Z,4.63
2022-10-21T12:19:01.161Z,5.25
2022-10-21T12:21:30.675Z,4.80
2022-10-21T12:24:11.282Z,4.90
2022-10-21T12:26:45.347Z,5.85
2022-10-21T12:32:06.670Z,6.75
2022-10-21T12:34:33.959Z,5.15
2022-10-21T12:37:01.996Z,5.13
2022-10-21T12:39:34.490Z,4.60
2022-10-21T12:42:17.138Z,4.90
2022-10-21T12:44:48.830Z,4.45
2022-10-21T12:47:38.575Z,4.30
2022-10-21T12:50:16.330Z,4.68
2022-10-21T12:52:44.519Z,4.85
2022-10-21T12:55:24.135Z,4.35
2022-10-21T12:58:00.493Z,4.82
2022-10-21T13:00:27.089Z,5.22
2022-10-21T13:03:11.772Z,5.32
2022-10-21T13:05:38.387Z,4.55
2022-10-21T13:08:23.122Z,4.45
2022-10-21T13:11:07.874Z,4.80
2022-10-21T13:13:42.713Z,5.10
2022-10-21T13:16:18.549Z,5.55
2022-10-21T13:18:52.622Z,4.55
2022-10-21T13:21:41.863Z,4.80
2022-10-21T13:24:13.469Z,4.50
2022-10-21T13:26:41.598Z,4.90
2022-10-21T13:29:13.990Z,4.80
2022-10-21T13:31:43.080Z,5.50
2022-10-21T13:34:28.031Z,4.90
2022-10-21T13:36:55.667Z,4.50
2022-10-21T13:39:31.261Z,4.65
2022-10-21T13:42:05.127Z,4.28
2022-10-21T13:44:40.460Z,5.03
2022-10-21T13:47:28.268Z,4.50
2022-10-21T13:49:58.230Z,4.32
2022-10-21T13:52:29.563Z,4.32
2022-10-21T13:55:00.761Z,4.30
2022-10-21T13:57:36.317Z,4.65
2022-10-21T14:00:10.115Z,5.38
2022-10-21T14:02:36.783Z,5.25
2022-10-21T14:05:03.662Z,4.63
2022-10-21T14:07:30.360Z,4.70
2022-10-21T14:09:58.892Z,4.53
2022-10-21T14:12:36.077Z,4.88
2022-10-21T14:15:13.342Z,4.75
2022-10-21T14:17:43.839Z,4.93
2022-10-21T14:20:17.892Z,4.97
2022-10-21T14:22:49.948Z,5.28
2022-10-21T14:25:18.581Z,5.22
2022-10-21T14:27:47.152Z,4.70
2022-10-21T14:30:25.792Z,5.40
2022-10-21T14:32:53.119Z,5.07
2022-10-21T14:35:19.778Z,4.88
2022-10-21T14:37:48.797Z,5.45
2022-10-21T14:40:35.918Z,4.95
2022-10-21T14:43:11.367Z,5.05
2022-10-21T14:45:53.737Z,4.60
2022-10-21T14:48:29.341Z,5.35
2022-10-21T14:51:09.793Z,5.55
2022-10-21T14:53:43.834Z,4.70
2022-10-21T14:56:17.901Z,5.15
2022-10-21T14:58:46.929Z,4.85
2022-10-21T15:01:18.845Z,5.20
2022-10-21T15:03:51.712Z,4.53
2022-10-21T15:06:34.754Z,4.78
2022-10-21T15:09:10.657Z,4.80
2022-10-21T15:11:42.487Z,4.50
2022-10-21T15:14:15.449Z,4.70
2022-10-21T15:16:48.513Z,4.60
2022-10-21T15:19:42.960Z,5.15
2022-10-21T15:22:27.592Z,4.53
2022-10-21T15:24:59.022Z,5.00
2022-10-21T15:27:27.078Z,4.07
2022-10-21T15:29:54.194Z,4.80
2022-10-21T15:32:26.865Z,4.82
2022-10-21T15:34:56.219Z,4.10
2022-10-21T15:37:22.864Z,5.05
2022-10-21T15:39:49.551Z,7.38
2022-10-21T15:42:18.498Z,8.68
2022-10-21T15:44:49.907Z,9.07
2022-10-21T15:47:16.751Z,7.70
2022-10-21T15:49:45.210Z,10.40
2022-10-21T15:52:12.510Z,17.50
2022-10-21T15:54:39.182Z,15.57
2022-10-21T15:57:14.555Z,13.30
2022-10-21T15:59:45.025Z,9.23
2022-10-21T16:02:16.542Z,10.13
2022-10-21T16:04:44.880Z,8.23
2022-10-21T16:07:21.831Z,10.57
2022-10-21T16:09:48.804Z,12.50
2022-10-21T16:12:17.743Z,11.23
2022-10-21T16:14:44.384Z,8.27
2022-10-21T16:17:12.095Z,8.32
2022-10-21T16:19:38.708Z,7.28
2022-10-21T16:22:14.223Z,8.35
2022-10-21T16:24:40.880Z,11.13
2022-10-21T16:27:12.776Z,11.23
2022-10-21T16:29:40.155Z,10.50
2022-10-21T16:32:10.227Z,10.13
2022-10-21T16:34:36.837Z,6.82
2022-10-21T16:37:18.104Z,5.72
2022-10-21T16:39:44.767Z,8.95
2022-10-21T16:42:11.379Z,7.68
2022-10-21T16:44:37.943Z,7.45
2022-10-21T16:47:06.812Z,13.63
2022-10-21T16:49:34.003Z,13.85
2022-10-21T16:52:02.108Z,13.18
2022-10-21T16:54:28.753Z,14.25
2022-10-21T16:56:55.698Z,13.38
2022-10-21T16:59:23.062Z,14.93
2022-10-21T17:01:49.751Z,20.13
2022-10-21T17:04:16.424Z,14.80
2022-10-21T17:06:43.094Z,10.88
2022-10-21T17:09:09.869Z,13.00
2022-10-21T17:11:38.678Z,10.48
2022-10-21T17:14:07.648Z,12.15
2022-10-21T17:16:34.363Z,14.68
2022-10-21T17:19:01.005Z,10.05
2022-10-21T17:21:30.456Z,10.20
2022-10-21T17:23:58.221Z,9.25
2022-10-21T17:26:25.833Z,9.23
2022-10-21T17:28:52.503Z,8.50
2022-10-21T17:31:21.773Z,10.07
2022-10-21T17:33:50.033Z,14.63
2022-10-21T17:36:17.614Z,10.32
2022-10-21T17:38:44.617Z,10.73
2022-10-21T17:41:15.934Z,9.82
2022-10-21T17:43:42.552Z,9.23
2022-10-21T17:46:16.009Z,9.55
2022-10-21T17:48:42.581Z,10.05
2022-10-21T17:51:09.185Z,12.27
2022-10-21T17:53:35.882Z,12.10
2022-10-21T17:56:06.122Z,13.10
2022-10-21T17:58:33.455Z,12.82
2022-10-21T18:01:00.282Z,12.63
2022-10-21T18:03:28.749Z,11.80
2022-10-21T18:05:56.051Z,11.73
2022-10-21T18:08:23.630Z,12.00
2022-10-21T18:10:55.353Z,12.20
2022-10-21T18:13:23.061Z,13.15
2022-10-21T18:15:50.361Z,12.90
2022-10-21T18:18:18.275Z,14.05
2022-10-21T18:20:45.168Z,14.25
2022-10-21T18:23:12.246Z,14.00
2022-10-21T18:25:39.666Z,15.10
2022-10-21T18:28:06.968Z,14.95
2022-10-21T18:30:34.352Z,14.82
2022-10-21T18:33:01.409Z,14.23
2022-10-21T18:35:29.829Z,15.88
2022-10-21T18:37:57.033Z,15.65
2022-10-21T18:43:12.353Z,16.63
2022-10-21T18:45:39.057Z,15.48
2022-10-21T18:48:06.119Z,16.23
2022-10-21T18:50:32.885Z,16.33
2022-10-21T18:53:00.913Z,16.80
2022-10-21T18:55:27.479Z,16.10
2022-10-21T18:57:54.200Z,16.35
2022-10-21T19:00:21.193Z,15.52
2022-10-21T19:02:47.757Z,16.60
2022-10-21T19:05:14.358Z,16.17
2022-10-21T19:07:41.365Z,16.77
2022-10-21T19:10:08.516Z,17.08
2022-10-21T19:12:35.245Z,17.55
2022-10-21T19:15:01.975Z,17.63
2022-10-21T19:17:28.571Z,17.65
2022-10-21T19:19:55.258Z,18.13
2022-10-21T19:22:23.404Z,16.52
2022-10-21T19:24:50.033Z,15.93
2022-10-21T19:27:16.660Z,17.27
2022-10-21T19:29:43.467Z,15.90
2022-10-21T19:32:11.698Z,15.25
2022-10-21T19:34:38.297Z,16.02
2022-10-21T19:37:05.070Z,15.80
2022-10-21T19:39:31.715Z,15.02
2022-10-21T19:41:59.525Z,15.48
2022-10-21T19:44:26.146Z,15.73
2022-10-21T19:46:52.758Z,15.70
2022-10-21T19:49:19.597Z,16.00
2022-10-21T19:51:46.270Z,16.63
2022-10-21T19:54:13.780Z,17.13
2022-10-21T19:56:40.756Z,17.52
2022-10-21T19:59:09.744Z,17.83
2022-10-21T20:01:36.756Z,17.90
2022-10-21T20:04:04.734Z,18.48
2022-10-21T20:06:34.450Z,18.13
2022-10-21T20:09:07.079Z,18.83
2022-10-21T20:11:33.985Z,19.33
2022-10-21T20:14:00.657Z,20.08
2022-10-21T20:16:29.821Z,20.08
2022-10-21T20:18:57.126Z,21.25
2022-10-21T20:21:24.611Z,21.38
2022-10-21T20:23:51.768Z,21.85
2022-10-21T20:26:18.783Z,22.95
2022-10-21T20:28:45.463Z,22.65
2022-10-21T20:31:14.659Z,21.42
2022-10-21T20:33:44.088Z,22.27
2022-10-21T20:36:32.462Z,22.73
2022-10-21T20:39:01.234Z,22.25
2022-10-21T20:41:33.855Z,23.35
2022-10-21T20:44:01.865Z,22.88
2022-10-21T20:46:29.409Z,22.70
2022-10-21T20:48:56.102Z,20.83
2022-10-21T20:51:31.582Z,22.40
2022-10-21T20:54:04.188Z,22.85
2022-10-21T20:56:33.013Z,22.08
2022-10-21T20:59:00.504Z,19.83
2022-10-21T21:01:33.073Z,23.92
2022-10-21T21:04:02.702Z,22.50
2022-10-21T21:06:29.317Z,22.67
2022-10-21T21:09:25.749Z,23.38
2022-10-21T21:11:42.607Z,22.08
2022-10-21T21:14:09.280Z,24.60
2022-10-21T21:16:35.958Z,22.00
2022-10-21T21:19:04.786Z,24.92
2022-10-21T21:21:34.039Z,22.27
2022-10-21T21:24:01.215Z,24.85
2022-10-21T21:26:31.437Z,24.83
2022-10-21T21:28:58.384Z,24.42
2022-10-21T21:31:26.878Z,25.05
2022-10-21T21:33:54.666Z,25.05
2022-10-21T21:36:22.606Z,24.65
2022-10-21T21:38:50.553Z,25.00
2022-10-21T21:41:17.916Z,24.45
2022-10-21T21:43:46.053Z,24.42
2022-10-21T21:46:12.801Z,25.10
2022-10-21T21:48:39.547Z,23.90
2022-10-21T21:51:10.294Z,25.08
2022-10-21T21:53:38.249Z,25.17
2022-10-21T21:56:07.473Z,24.95
2022-10-21T21:58:34.593Z,23.63
2022-10-21T22:01:14.595Z,24.25
2022-10-21T22:03:41.612Z,24.90
2022-10-21T22:06:08.532Z,25.33
2022-10-21T22:08:38.349Z,25.98
2022-10-21T22:11:14.881Z,26.35
2022-10-21T22:13:42.370Z,25.77
2022-10-21T22:16:11.744Z,25.73
2022-10-21T22:18:39.421Z,25.52
2022-10-21T22:21:08.995Z,25.90
2022-10-21T22:23:36.376Z,26.48
2022-10-21T22:26:03.695Z,25.77
2022-10-21T22:28:30.277Z,26.02
2022-10-21T22:30:59.733Z,25.52
2022-10-21T22:33:27.314Z,26.63
2022-10-21T22:35:54.033Z,26.90
2022-10-21T22:38:21.129Z,26.05
2022-10-21T22:40:51.830Z,25.85
2022-10-21T22:43:18.442Z,26.77
2022-10-21T22:45:47.379Z,26.42
2022-10-21T22:48:14.848Z,28.45
2022-10-21T22:50:41.400Z,28.58
2022-10-21T22:53:07.988Z,27.00
2022-10-21T22:55:34.595Z,28.67
2022-10-21T22:58:01.251Z,27.63
2022-10-21T23:00:27.892Z,26.33
2022-10-21T23:02:54.516Z,26.67
2022-10-21T23:05:21.265Z,26.58
2022-10-21T23:07:47.904Z,27.08
2022-10-21T23:10:14.766Z,28.02
2022-10-21T23:12:41.761Z,29.08
2022-10-21T23:15:09.121Z,26.23
2022-10-21T23:17:35.772Z,28.02
2022-10-21T23:20:02.404Z,28.10
2022-10-21T23:22:28.966Z,29.25
2022-10-21T23:24:55.633Z,28.95
2022-10-21T23:27:22.210Z,28.20
2022-10-21T23:29:48.872Z,27.88
2022-10-21T23:32:15.457Z,29.48
2022-10-21T23:34:42.088Z,30.30
2022-10-21T23:37:08.827Z,30.35
2022-10-21T23:39:35.597Z,31.23
2022-10-21T23:42:02.831Z,28.92
2022-10-21T23:44:29.539Z,28.73
2022-10-21T23:46:57.509Z,27.85
2022-10-21T23:49:24.428Z,31.27
2022-10-21T23:51:51.106Z,31.02
2022-10-21T23:54:17.925Z,31.55
2022-10-21T23:56:45.334Z,31.88
2022-10-21T23:59:12.034Z,31.05
